sensor_id;sensor_type;location;lat;lon;timestamp;P1;durP1;ratioP1;P2;durP2;ratioP2
54557;SDS011;40452;50.080;20.040;2022-12-07T04:51:46;8.98;;;3.28;;
54557;SDS011;40452;50.080;20.040;2022-12-07T04:54:12;7.43;;;3.17;;
54557;SDS011;40452;50.080;20.040;2022-12-07T04:56:38;7.55;;;3.28;;
54557;SDS011;40452;50.080;20.040;2022-12-07T04:59:04;5.20;;;2.90;;
54557;SDS011;40452;50.080;20.040;2022-12-07T05:01:31;7.30;;;3.50;;
54557;SDS011;40452;50.080;20.040;2022-12-07T05:03:57;5.55;;;3.38;;
54557;SDS011;40452;50.080;20.040;2022-12-07T05:06:23;5.90;;;3.17;;
54557;SDS011;40452;50.080;20.040;2022-12-07T05:08:48;5.35;;;2.90;;
54557;SDS011;40452;50.080;20.040;2022-12-07T05:11:14;6.13;;;3.20;;
54557;SDS011;40452;50.080;20.040;2022-12-07T05:14:00;5.50;;;3.10;;
54557;SDS011;40452;50.080;20.040;2022-12-07T05:16:27;4.68;;;2.65;;
54557;SDS011;40452;50.080;20.040;2022-12-07T05:18:53;7.05;;;3.20;;
54557;SDS011;40452;50.080;20.040;2022-12-07T05:21:18;7.20;;;3.00;;
54557;SDS011;40452;50.080;20.040;2022-12-07T05:23:44;5.78;;;2.92;;
54557;SDS011;40452;50.080;20.040;2022-12-07T05:26:09;6.45;;;2.95;;
54557;SDS011;40452;50.080;20.040;2022-12-07T05:28:35;5.35;;;3.20;;
54557;SDS011;40452;50.080;20.040;2022-12-07T05:31:00;4.28;;;3.00;;
54557;SDS011;40452;50.080;20.040;2022-12-07T05:33:26;6.35;;;3.22;;
54557;SDS011;40452;50.080;20.040;2022-12-07T05:35:51;7.25;;;3.30;;
54557;SDS011;40452;50.080;20.040;2022-12-07T05:38:17;7.20;;;3.00;;
54557;SDS011;40452;50.080;20.040;2022-12-07T05:40:43;5.90;;;3.30;;
54557;SDS011;40452;50.080;20.040;2022-12-07T05:43:08;8.43;;;3.63;;
54557;SDS011;40452;50.080;20.040;2022-12-07T05:45:34;7.03;;;3.03;;
54557;SDS011;40452;50.080;20.040;2022-12-07T05:47:59;5.18;;;2.92;;
54557;SDS011;40452;50.080;20.040;2022-12-07T05:50:25;6.40;;;3.20;;
54557;SDS011;40452;50.080;20.040;2022-12-07T05:52:50;7.40;;;3.28;;
54557;SDS011;40452;50.080;20.040;2022-12-07T05:55:16;8.15;;;3.50;;
54557;SDS011;40452;50.080;20.040;2022-12-07T05:57:41;6.18;;;3.38;;
54557;SDS011;40452;50.080;20.040;2022-12-07T06:00:26;8.65;;;3.63;;
54557;SDS011;40452;50.080;20.040;2022-12-07T06:02:52;8.95;;;3.75;;
54557;SDS011;40452;50.080;20.040;2022-12-07T06:05:17;8.20;;;3.53;;
54557;SDS011;40452;50.080;20.040;2022-12-07T06:07:43;6.07;;;3.35;;
54557;SDS011;40452;50.080;20.040;2022-12-07T06:10:08;7.97;;;3.80;;
54557;SDS011;40452;50.080;20.040;2022-12-07T06:12:34;6.68;;;3.70;;
54557;SDS011;40452;50.080;20.040;2022-12-07T06:15:00;6.53;;;3.53;;
54557;SDS011;40452;50.080;20.040;2022-12-07T06:17:26;7.32;;;3.40;;
54557;SDS011;40452;50.080;20.040;2022-12-07T06:19:51;8.98;;;3.72;;
54557;SDS011;40452;50.080;20.040;2022-12-07T06:22:17;7.75;;;4.25;;
54557;SDS011;40452;50.080;20.040;2022-12-07T06:24:43;7.03;;;3.28;;
54557;SDS011;40452;50.080;20.040;2022-12-07T06:27:09;5.57;;;2.97;;
54557;SDS011;40452;50.080;20.040;2022-12-07T06:29:35;6.60;;;3.50;;
54557;SDS011;40452;50.080;20.040;2022-12-07T06:32:00;6.43;;;3.35;;
54557;SDS011;40452;50.080;20.040;2022-12-07T06:34:26;5.05;;;3.15;;
54557;SDS011;40452;50.080;20.040;2022-12-07T06:36:52;7.57;;;3.35;;
54557;SDS011;40452;50.080;20.040;2022-12-07T06:39:20;9.60;;;3.30;;
54557;SDS011;40452;50.080;20.040;2022-12-07T06:41:49;3.90;;;2.67;;
54557;SDS011;40452;50.080;20.040;2022-12-07T06:44:16;6.85;;;3.10;;
54557;SDS011;40452;50.080;20.040;2022-12-07T06:46:42;4.95;;;2.95;;
54557;SDS011;40452;50.080;20.040;2022-12-07T06:49:08;4.20;;;2.40;;
54557;SDS011;40452;50.080;20.040;2022-12-07T06:51:33;4.72;;;2.92;;
54557;SDS011;40452;50.080;20.040;2022-12-07T06:54:01;5.82;;;2.90;;
54557;SDS011;40452;50.080;20.040;2022-12-07T06:56:29;5.78;;;2.95;;
54557;SDS011;40452;50.080;20.040;2022-12-07T06:58:55;5.45;;;2.17;;
54557;SDS011;40452;50.080;20.040;2022-12-07T07:01:21;5.88;;;2.65;;
54557;SDS011;40452;50.080;20.040;2022-12-07T07:03:46;4.63;;;2.80;;
54557;SDS011;40452;50.080;20.040;2022-12-07T07:06:12;4.72;;;2.47;;
54557;SDS011;40452;50.080;20.040;2022-12-07T07:08:39;4.07;;;2.30;;
54557;SDS011;40452;50.080;20.040;2022-12-07T07:11:05;4.28;;;2.70;;
54557;SDS011;40452;50.080;20.040;2022-12-07T07:13:32;5.10;;;2.30;;
54557;SDS011;40452;50.080;20.040;2022-12-07T07:15:58;4.10;;;2.55;;
54557;SDS011;40452;50.080;20.040;2022-12-07T07:18:25;4.32;;;2.42;;
54557;SDS011;40452;50.080;20.040;2022-12-07T07:20:50;5.63;;;1.95;;
54557;SDS011;40452;50.080;20.040;2022-12-07T07:23:17;5.32;;;2.40;;
54557;SDS011;40452;50.080;20.040;2022-12-07T07:25:43;4.78;;;2.47;;
54557;SDS011;40452;50.080;20.040;2022-12-07T07:28:09;5.93;;;2.35;;
54557;SDS011;40452;50.080;20.040;2022-12-07T07:30:35;4.20;;;2.28;;
54557;SDS011;40452;50.080;20.040;2022-12-07T07:33:01;3.65;;;2.40;;
54557;SDS011;40452;50.080;20.040;2022-12-07T07:35:29;3.97;;;2.35;;
54557;SDS011;40452;50.080;20.040;2022-12-07T07:37:55;3.35;;;2.30;;
54557;SDS011;40452;50.080;20.040;2022-12-07T07:40:20;2.97;;;2.35;;
54557;SDS011;40452;50.080;20.040;2022-12-07T07:42:47;3.00;;;1.95;;
54557;SDS011;40452;50.080;20.040;2022-12-07T07:45:13;3.17;;;2.00;;
54557;SDS011;40452;50.080;20.040;2022-12-07T07:47:39;4.72;;;2.25;;
54557;SDS011;40452;50.080;20.040;2022-12-07T07:50:05;5.88;;;2.42;;
54557;SDS011;40452;50.080;20.040;2022-12-07T07:52:31;4.32;;;2.42;;
54557;SDS011;40452;50.080;20.040;2022-12-07T07:54:56;4.15;;;2.30;;
54557;SDS011;40452;50.080;20.040;2022-12-07T07:57:22;4.68;;;2.10;;
54557;SDS011;40452;50.080;20.040;2022-12-07T07:59:47;3.75;;;2.20;;
54557;SDS011;40452;50.080;20.040;2022-12-07T08:02:13;3.40;;;2.22;;
54557;SDS011;40452;50.080;20.040;2022-12-07T08:04:40;3.05;;;1.95;;
54557;SDS011;40452;50.080;20.040;2022-12-07T08:07:06;4.15;;;2.30;;
54557;SDS011;40452;50.080;20.040;2022-12-07T08:09:31;6.22;;;2.20;;
54557;SDS011;40452;50.080;20.040;2022-12-07T08:11:57;3.63;;;2.50;;
54557;SDS011;40452;50.080;20.040;2022-12-07T08:14:23;3.90;;;2.50;;
54557;SDS011;40452;50.080;20.040;2022-12-07T08:16:49;4.88;;;2.67;;
54557;SDS011;40452;50.080;20.040;2022-12-07T08:19:15;3.83;;;2.42;;
54557;SDS011;40452;50.080;20.040;2022-12-07T08:21:40;4.63;;;2.55;;
54557;SDS011;40452;50.080;20.040;2022-12-07T08:24:06;4.20;;;2.58;;
54557;SDS011;40452;50.080;20.040;2022-12-07T08:26:32;4.03;;;2.38;;
54557;SDS011;40452;50.080;20.040;2022-12-07T08:28:58;6.22;;;2.50;;
54557;SDS011;40452;50.080;20.040;2022-12-07T08:31:24;4.28;;;2.75;;
54557;SDS011;40452;50.080;20.040;2022-12-07T08:33:49;4.07;;;2.60;;
54557;SDS011;40452;50.080;20.040;2022-12-07T08:36:15;7.03;;;2.65;;
54557;SDS011;40452;50.080;20.040;2022-12-07T08:38:41;4.28;;;2.42;;
54557;SDS011;40452;50.080;20.040;2022-12-07T08:41:07;5.20;;;2.63;;
54557;SDS011;40452;50.080;20.040;2022-12-07T08:43:33;5.35;;;2.28;;
54557;SDS011;40452;50.080;20.040;2022-12-07T08:46:07;4.03;;;2.55;;
54557;SDS011;40452;50.080;20.040;2022-12-07T08:48:36;3.80;;;2.28;;
54557;SDS011;40452;50.080;20.040;2022-12-07T08:51:08;4.88;;;2.30;;
54557;SDS011;40452;50.080;20.040;2022-12-07T08:53:34;4.85;;;2.60;;
54557;SDS011;40452;50.080;20.040;2022-12-07T08:56:01;4.60;;;2.28;;
54557;SDS011;40452;50.080;20.040;2022-12-07T08:58:27;3.92;;;2.58;;
54557;SDS011;40452;50.080;20.040;2022-12-07T09:00:52;4.35;;;2.50;;
54557;SDS011;40452;50.080;20.040;2022-12-07T09:03:18;4.28;;;2.63;;
54557;SDS011;40452;50.080;20.040;2022-12-07T09:05:43;4.15;;;2.33;;
54557;SDS011;40452;50.080;20.040;2022-12-07T09:08:09;7.50;;;2.80;;
54557;SDS011;40452;50.080;20.040;2022-12-07T09:10:34;3.92;;;2.40;;
54557;SDS011;40452;50.080;20.040;2022-12-07T09:13:00;3.58;;;2.38;;
54557;SDS011;40452;50.080;20.040;2022-12-07T09:15:26;4.10;;;2.40;;
54557;SDS011;40452;50.080;20.040;2022-12-07T09:17:52;4.95;;;2.30;;
54557;SDS011;40452;50.080;20.040;2022-12-07T09:20:18;5.50;;;2.33;;
54557;SDS011;40452;50.080;20.040;2022-12-07T09:22:43;3.95;;;2.53;;
54557;SDS011;40452;50.080;20.040;2022-12-07T09:25:09;3.72;;;2.30;;
54557;SDS011;40452;50.080;20.040;2022-12-07T09:27:34;6.15;;;2.95;;
54557;SDS011;40452;50.080;20.040;2022-12-07T09:30:00;4.22;;;2.33;;
54557;SDS011;40452;50.080;20.040;2022-12-07T09:32:26;4.18;;;2.40;;
54557;SDS011;40452;50.080;20.040;2022-12-07T09:34:51;5.93;;;2.55;;
54557;SDS011;40452;50.080;20.040;2022-12-07T09:37:17;6.00;;;2.90;;
54557;SDS011;40452;50.080;20.040;2022-12-07T09:39:42;6.13;;;2.70;;
54557;SDS011;40452;50.080;20.040;2022-12-07T09:42:08;4.03;;;2.20;;
54557;SDS011;40452;50.080;20.040;2022-12-07T09:44:51;3.85;;;2.30;;
54557;SDS011;40452;50.080;20.040;2022-12-07T09:47:16;4.60;;;2.75;;
54557;SDS011;40452;50.080;20.040;2022-12-07T09:49:42;2.83;;;2.08;;
54557;SDS011;40452;50.080;20.040;2022-12-07T09:54:34;3.90;;;2.53;;
54557;SDS011;40452;50.080;20.040;2022-12-07T09:57:03;3.95;;;2.50;;
54557;SDS011;40452;50.080;20.040;2022-12-07T09:59:28;5.78;;;2.92;;
54557;SDS011;40452;50.080;20.040;2022-12-07T10:01:54;3.78;;;2.33;;
54557;SDS011;40452;50.080;20.040;2022-12-07T10:04:21;4.50;;;2.92;;
54557;SDS011;40452;50.080;20.040;2022-12-07T10:06:49;4.00;;;2.50;;
54557;SDS011;40452;50.080;20.040;2022-12-07T10:09:16;4.28;;;2.70;;
54557;SDS011;40452;50.080;20.040;2022-12-07T10:14:36;8.18;;;2.97;;
54557;SDS011;40452;50.080;20.040;2022-12-07T15:50:19;7.85;;;4.75;;
54557;SDS011;40452;50.080;20.040;2022-12-07T15:52:44;6.72;;;4.70;;
54557;SDS011;40452;50.080;20.040;2022-12-07T15:55:10;12.27;;;5.18;;
54557;SDS011;40452;50.080;20.040;2022-12-07T15:57:36;7.57;;;4.95;;
54557;SDS011;40452;50.080;20.040;2022-12-07T16:00:06;8.55;;;5.00;;
54557;SDS011;40452;50.080;20.040;2022-12-07T16:02:33;10.73;;;4.43;;
54557;SDS011;40452;50.080;20.040;2022-12-07T16:04:59;8.18;;;4.45;;
54557;SDS011;40452;50.080;20.040;2022-12-07T16:07:25;6.82;;;3.92;;
54557;SDS011;40452;50.080;20.040;2022-12-07T16:09:50;8.18;;;4.80;;
54557;SDS011;40452;50.080;20.040;2022-12-07T16:12:16;10.43;;;4.32;;
54557;SDS011;40452;50.080;20.040;2022-12-07T16:14:42;7.35;;;4.40;;
54557;SDS011;40452;50.080;20.040;2022-12-07T16:17:07;9.57;;;4.57;;
54557;SDS011;40452;50.080;20.040;2022-12-07T16:19:34;9.05;;;4.25;;
54557;SDS011;40452;50.080;20.040;2022-12-07T16:22:01;6.75;;;4.22;;
54557;SDS011;40452;50.080;20.040;2022-12-07T16:24:28;9.10;;;4.40;;
54557;SDS011;40452;50.080;20.040;2022-12-07T16:26:54;9.90;;;4.65;;
54557;SDS011;40452;50.080;20.040;2022-12-07T16:29:20;10.00;;;4.57;;
54557;SDS011;40452;50.080;20.040;2022-12-07T16:31:46;8.13;;;4.80;;
54557;SDS011;40452;50.080;20.040;2022-12-07T16:34:12;19.27;;;4.72;;
54557;SDS011;40452;50.080;20.040;2022-12-07T16:36:38;8.40;;;4.85;;
54557;SDS011;40452;50.080;20.040;2022-12-07T16:39:04;8.50;;;4.50;;
54557;SDS011;40452;50.080;20.040;2022-12-07T16:41:30;8.23;;;4.18;;
54557;SDS011;40452;50.080;20.040;2022-12-07T16:43:55;8.07;;;4.40;;
54557;SDS011;40452;50.080;20.040;2022-12-07T16:46:21;10.30;;;4.88;;
54557;SDS011;40452;50.080;20.040;2022-12-07T16:48:46;7.93;;;4.70;;
54557;SDS011;40452;50.080;20.040;2022-12-07T16:51:13;7.68;;;4.10;;
54557;SDS011;40452;50.080;20.040;2022-12-07T16:53:40;7.45;;;4.13;;
54557;SDS011;40452;50.080;20.040;2022-12-07T16:56:10;7.63;;;4.22;;
54557;SDS011;40452;50.080;20.040;2022-12-07T16:58:36;8.38;;;4.10;;
54557;SDS011;40452;50.080;20.040;2022-12-07T17:01:09;10.90;;;4.03;;
54557;SDS011;40452;50.080;20.040;2022-12-07T17:03:39;7.68;;;3.97;;
54557;SDS011;40452;50.080;20.040;2022-12-07T17:06:10;11.60;;;4.72;;
54557;SDS011;40452;50.080;20.040;2022-12-07T17:08:42;14.70;;;4.30;;
54557;SDS011;40452;50.080;20.040;2022-12-07T17:11:11;10.02;;;4.25;;
54557;SDS011;40452;50.080;20.040;2022-12-07T17:13:44;9.30;;;4.30;;
54557;SDS011;40452;50.080;20.040;2022-12-07T17:16:28;6.78;;;4.20;;
54557;SDS011;40452;50.080;20.040;2022-12-07T17:18:54;8.50;;;4.05;;
54557;SDS011;40452;50.080;20.040;2022-12-07T17:21:20;6.90;;;4.07;;
54557;SDS011;40452;50.080;20.040;2022-12-07T17:23:46;7.00;;;4.10;;
54557;SDS011;40452;50.080;20.040;2022-12-07T17:26:13;7.82;;;4.13;;
54557;SDS011;40452;50.080;20.040;2022-12-07T17:28:41;7.57;;;4.15;;
54557;SDS011;40452;50.080;20.040;2022-12-07T17:31:08;9.88;;;4.10;;
54557;SDS011;40452;50.080;20.040;2022-12-07T17:33:35;6.88;;;4.28;;
54557;SDS011;40452;50.080;20.040;2022-12-07T17:36:08;8.00;;;4.05;;
54557;SDS011;40452;50.080;20.040;2022-12-07T17:38:38;10.35;;;3.97;;
54557;SDS011;40452;50.080;20.040;2022-12-07T17:41:11;7.60;;;4.30;;
54557;SDS011;40452;50.080;20.040;2022-12-07T17:43:59;7.68;;;4.00;;
54557;SDS011;40452;50.080;20.040;2022-12-07T17:46:25;5.90;;;3.88;;
54557;SDS011;40452;50.080;20.040;2022-12-07T17:48:53;9.98;;;3.80;;
54557;SDS011;40452;50.080;20.040;2022-12-07T17:51:19;7.13;;;4.07;;
54557;SDS011;40452;50.080;20.040;2022-12-07T17:54:03;9.00;;;4.45;;
54557;SDS011;40452;50.080;20.040;2022-12-07T17:56:28;6.65;;;4.10;;
54557;SDS011;40452;50.080;20.040;2022-12-07T17:58:54;10.95;;;4.03;;
54557;SDS011;40452;50.080;20.040;2022-12-07T18:01:19;6.90;;;4.13;;
54557;SDS011;40452;50.080;20.040;2022-12-07T18:03:45;11.30;;;4.18;;
54557;SDS011;40452;50.080;20.040;2022-12-07T18:06:10;7.15;;;4.10;;
54557;SDS011;40452;50.080;20.040;2022-12-07T18:08:36;7.35;;;4.10;;
54557;SDS011;40452;50.080;20.040;2022-12-07T18:11:03;8.02;;;3.83;;
54557;SDS011;40452;50.080;20.040;2022-12-07T18:13:29;7.25;;;3.90;;
54557;SDS011;40452;50.080;20.040;2022-12-07T18:16:06;9.98;;;4.35;;
54557;SDS011;40452;50.080;20.040;2022-12-07T18:18:33;6.75;;;4.05;;
54557;SDS011;40452;50.080;20.040;2022-12-07T18:21:04;7.90;;;4.10;;
54557;SDS011;40452;50.080;20.040;2022-12-07T18:23:32;7.18;;;3.92;;
54557;SDS011;40452;50.080;20.040;2022-12-07T18:25:58;7.72;;;3.75;;
54557;SDS011;40452;50.080;20.040;2022-12-07T18:28:24;6.95;;;4.15;;
54557;SDS011;40452;50.080;20.040;2022-12-07T18:30:50;6.38;;;3.97;;
54557;SDS011;40452;50.080;20.040;2022-12-07T18:33:16;6.35;;;4.07;;
54557;SDS011;40452;50.080;20.040;2022-12-07T18:35:42;7.95;;;3.92;;
54557;SDS011;40452;50.080;20.040;2022-12-07T18:38:09;7.15;;;3.78;;
54557;SDS011;40452;50.080;20.040;2022-12-07T18:40:36;7.20;;;4.32;;
54557;SDS011;40452;50.080;20.040;2022-12-07T18:43:02;6.63;;;3.72;;
54557;SDS011;40452;50.080;20.040;2022-12-07T18:45:28;7.78;;;3.83;;
54557;SDS011;40452;50.080;20.040;2022-12-07T18:47:54;7.63;;;4.03;;
54557;SDS011;40452;50.080;20.040;2022-12-07T18:50:19;6.05;;;3.22;;
54557;SDS011;40452;50.080;20.040;2022-12-07T18:52:45;5.05;;;3.60;;
54557;SDS011;40452;50.080;20.040;2022-12-07T18:55:10;7.53;;;3.78;;
54557;SDS011;40452;50.080;20.040;2022-12-07T18:57:36;6.53;;;3.80;;
54557;SDS011;40452;50.080;20.040;2022-12-07T19:00:02;7.28;;;3.75;;
54557;SDS011;40452;50.080;20.040;2022-12-07T19:02:28;5.78;;;3.63;;
54557;SDS011;40452;50.080;20.040;2022-12-07T19:04:54;5.60;;;3.50;;
54557;SDS011;40452;50.080;20.040;2022-12-07T19:07:19;6.85;;;3.55;;
54557;SDS011;40452;50.080;20.040;2022-12-07T19:09:45;6.10;;;3.75;;
54557;SDS011;40452;50.080;20.040;2022-12-07T19:12:11;7.28;;;3.70;;
54557;SDS011;40452;50.080;20.040;2022-12-07T19:14:37;6.00;;;3.72;;
54557;SDS011;40452;50.080;20.040;2022-12-07T19:17:07;6.65;;;3.83;;
54557;SDS011;40452;50.080;20.040;2022-12-07T19:19:39;6.15;;;3.75;;
54557;SDS011;40452;50.080;20.040;2022-12-07T19:22:07;9.13;;;3.78;;
54557;SDS011;40452;50.080;20.040;2022-12-07T19:24:36;5.28;;;3.70;;
54557;SDS011;40452;50.080;20.040;2022-12-07T19:27:03;10.73;;;4.25;;
54557;SDS011;40452;50.080;20.040;2022-12-07T19:29:29;8.38;;;4.40;;
54557;SDS011;40452;50.080;20.040;2022-12-07T19:31:58;9.02;;;4.35;;
54557;SDS011;40452;50.080;20.040;2022-12-07T19:34:24;7.93;;;4.30;;
54557;SDS011;40452;50.080;20.040;2022-12-07T19:36:50;7.43;;;4.00;;
54557;SDS011;40452;50.080;20.040;2022-12-07T19:39:15;9.38;;;4.22;;
54557;SDS011;40452;50.080;20.040;2022-12-07T19:41:41;7.10;;;4.70;;
54557;SDS011;40452;50.080;20.040;2022-12-07T19:44:11;11.98;;;3.85;;
54557;SDS011;40452;50.080;20.040;2022-12-07T19:46:42;7.13;;;4.03;;
54557;SDS011;40452;50.080;20.040;2022-12-07T19:49:10;8.52;;;4.20;;
54557;SDS011;40452;50.080;20.040;2022-12-07T19:51:39;10.13;;;4.35;;
54557;SDS011;40452;50.080;20.040;2022-12-07T19:54:06;6.95;;;4.13;;
54557;SDS011;40452;50.080;20.040;2022-12-07T19:56:34;6.82;;;4.00;;
54557;SDS011;40452;50.080;20.040;2022-12-07T19:59:00;7.35;;;3.90;;
54557;SDS011;40452;50.080;20.040;2022-12-07T20:01:26;6.53;;;3.78;;
54557;SDS011;40452;50.080;20.040;2022-12-07T20:03:52;10.02;;;4.32;;
54557;SDS011;40452;50.080;20.040;2022-12-07T20:06:18;7.45;;;4.07;;
54557;SDS011;40452;50.080;20.040;2022-12-07T20:08:45;9.25;;;4.53;;
54557;SDS011;40452;50.080;20.040;2022-12-07T20:11:12;11.80;;;4.47;;
54557;SDS011;40452;50.080;20.040;2022-12-07T20:13:57;7.95;;;4.28;;
54557;SDS011;40452;50.080;20.040;2022-12-07T20:16:22;7.90;;;4.63;;
54557;SDS011;40452;50.080;20.040;2022-12-07T20:18:48;9.93;;;4.88;;
54557;SDS011;40452;50.080;20.040;2022-12-07T20:21:13;8.02;;;4.07;;
54557;SDS011;40452;50.080;20.040;2022-12-07T20:23:39;10.73;;;4.45;;
54557;SDS011;40452;50.080;20.040;2022-12-07T20:26:06;8.32;;;4.28;;
54557;SDS011;40452;50.080;20.040;2022-12-07T20:28:33;10.27;;;4.43;;
54557;SDS011;40452;50.080;20.040;2022-12-07T20:30:59;8.13;;;4.30;;
54557;SDS011;40452;50.080;20.040;2022-12-07T20:33:25;7.90;;;4.40;;
54557;SDS011;40452;50.080;20.040;2022-12-07T20:35:50;7.15;;;4.20;;
54557;SDS011;40452;50.080;20.040;2022-12-07T20:38:16;7.90;;;4.60;;
54557;SDS011;40452;50.080;20.040;2022-12-07T20:40:46;10.55;;;4.40;;
54557;SDS011;40452;50.080;20.040;2022-12-07T20:43:12;9.20;;;4.75;;
54557;SDS011;40452;50.080;20.040;2022-12-07T20:45:48;8.68;;;4.32;;
54557;SDS011;40452;50.080;20.040;2022-12-07T20:48:14;10.20;;;4.43;;
54557;SDS011;40452;50.080;20.040;2022-12-07T20:50:40;10.20;;;4.55;;
54557;SDS011;40452;50.080;20.040;2022-12-07T20:53:06;8.75;;;4.45;;
54557;SDS011;40452;50.080;20.040;2022-12-07T20:55:32;9.00;;;4.18;;
54557;SDS011;40452;50.080;20.040;2022-12-07T20:57:58;9.15;;;4.45;;
54557;SDS011;40452;50.080;20.040;2022-12-07T21:00:23;8.20;;;4.10;;
54557;SDS011;40452;50.080;20.040;2022-12-07T21:02:49;8.90;;;4.15;;
54557;SDS011;40452;50.080;20.040;2022-12-07T21:05:15;11.68;;;4.50;;
54557;SDS011;40452;50.080;20.040;2022-12-07T21:07:40;7.40;;;4.03;;
54557;SDS011;40452;50.080;20.040;2022-12-07T21:10:06;8.00;;;4.28;;
54557;SDS011;40452;50.080;20.040;2022-12-07T21:12:32;8.90;;;4.22;;
54557;SDS011;40452;50.080;20.040;2022-12-07T21:14:57;6.85;;;4.38;;
54557;SDS011;40452;50.080;20.040;2022-12-07T21:17:23;6.40;;;4.13;;
54557;SDS011;40452;50.080;20.040;2022-12-07T21:19:50;7.60;;;4.47;;
54557;SDS011;40452;50.080;20.040;2022-12-07T21:22:15;5.57;;;3.58;;
54557;SDS011;40452;50.080;20.040;2022-12-07T21:24:41;6.80;;;4.07;;
54557;SDS011;40452;50.080;20.040;2022-12-07T21:27:07;7.38;;;4.25;;
54557;SDS011;40452;50.080;20.040;2022-12-07T21:29:33;7.88;;;4.13;;
54557;SDS011;40452;50.080;20.040;2022-12-07T21:31:59;8.30;;;3.83;;
54557;SDS011;40452;50.080;20.040;2022-12-07T21:34:25;7.20;;;3.95;;
54557;SDS011;40452;50.080;20.040;2022-12-07T21:36:50;7.05;;;4.10;;
54557;SDS011;40452;50.080;20.040;2022-12-07T21:39:16;8.20;;;4.32;;
54557;SDS011;40452;50.080;20.040;2022-12-07T21:41:42;7.47;;;4.38;;
54557;SDS011;40452;50.080;20.040;2022-12-07T21:44:08;7.72;;;4.00;;
54557;SDS011;40452;50.080;20.040;2022-12-07T21:46:34;7.72;;;4.30;;
54557;SDS011;40452;50.080;20.040;2022-12-07T21:49:02;7.57;;;4.50;;
54557;SDS011;40452;50.080;20.040;2022-12-07T21:51:29;6.93;;;4.10;;
54557;SDS011;40452;50.080;20.040;2022-12-07T21:53:55;6.85;;;4.32;;
54557;SDS011;40452;50.080;20.040;2022-12-07T21:56:22;6.95;;;4.13;;
54557;SDS011;40452;50.080;20.040;2022-12-07T21:58:50;7.30;;;3.85;;
54557;SDS011;40452;50.080;20.040;2022-12-07T22:01:17;8.68;;;4.03;;
54557;SDS011;40452;50.080;20.040;2022-12-07T22:03:51;6.53;;;3.80;;
54557;SDS011;40452;50.080;20.040;2022-12-07T22:06:18;7.10;;;4.22;;
54557;SDS011;40452;50.080;20.040;2022-12-07T22:08:50;7.28;;;3.80;;
54557;SDS011;40452;50.080;20.040;2022-12-07T22:11:17;8.23;;;4.10;;
54557;SDS011;40452;50.080;20.040;2022-12-07T22:13:43;6.95;;;3.60;;
54557;SDS011;40452;50.080;20.040;2022-12-07T22:16:28;6.72;;;4.25;;
54557;SDS011;40452;50.080;20.040;2022-12-07T22:18:54;6.25;;;3.42;;
54557;SDS011;40452;50.080;20.040;2022-12-07T22:21:21;6.25;;;3.58;;
54557;SDS011;40452;50.080;20.040;2022-12-07T22:23:47;6.60;;;3.90;;
54557;SDS011;40452;50.080;20.040;2022-12-07T22:26:14;5.25;;;3.40;;
54557;SDS011;40452;50.080;20.040;2022-12-07T22:28:40;5.93;;;3.40;;
54557;SDS011;40452;50.080;20.040;2022-12-07T22:31:08;5.90;;;3.42;;
54557;SDS011;40452;50.080;20.040;2022-12-07T22:33:35;6.60;;;3.90;;
54557;SDS011;40452;50.080;20.040;2022-12-07T22:36:01;6.72;;;3.70;;
54557;SDS011;40452;50.080;20.040;2022-12-07T22:38:27;4.70;;;3.08;;
54557;SDS011;40452;50.080;20.040;2022-12-07T22:40:53;6.85;;;3.20;;
54557;SDS011;40452;50.080;20.040;2022-12-07T22:43:20;6.60;;;3.50;;
54557;SDS011;40452;50.080;20.040;2022-12-07T22:45:55;5.07;;;3.17;;
54557;SDS011;40452;50.080;20.040;2022-12-07T22:48:23;6.13;;;3.30;;
54557;SDS011;40452;50.080;20.040;2022-12-07T22:50:49;8.35;;;3.80;;
54557;SDS011;40452;50.080;20.040;2022-12-07T22:53:16;5.75;;;3.53;;
54557;SDS011;40452;50.080;20.040;2022-12-07T22:55:42;5.75;;;3.33;;
54557;SDS011;40452;50.080;20.040;2022-12-07T22:58:08;7.43;;;3.38;;
54557;SDS011;40452;50.080;20.040;2022-12-07T23:00:33;5.43;;;3.53;;
54557;SDS011;40452;50.080;20.040;2022-12-07T23:02:59;6.30;;;3.17;;
54557;SDS011;40452;50.080;20.040;2022-12-07T23:05:25;5.90;;;3.22;;
